createdAt,value
2022-08-03T00:02:15.505Z,26.10
2022-08-03T00:04:42.606Z,26.30
2022-08-03T00:07:09.584Z,26.10
2022-08-03T00:09:36.787Z,25.90
2022-08-03T00:12:03.684Z,26.30
2022-08-03T00:14:30.624Z,26.40
2022-08-03T00:16:57.604Z,26.00
2022-08-03T00:19:24.497Z,26.20
2022-08-03T00:21:51.406Z,26.30
2022-08-03T00:24:18.507Z,25.90
2022-08-03T00:26:45.501Z,26.00
2022-08-03T00:29:12.461Z,26.30
2022-08-03T00:31:52.305Z,26.50
2022-08-03T00:34:36.221Z,26.10
2022-08-03T00:37:13.236Z,26.10
2022-08-03T00:39:40.151Z,26.00
2022-08-03T00:42:07.173Z,25.70
2022-08-03T00:44:34.213Z,26.10
2022-08-03T00:47:01.065Z,26.30
2022-08-03T00:49:28.058Z,26.10
2022-08-03T00:51:54.998Z,26.10
2022-08-03T00:54:21.958Z,26.30
2022-08-03T00:57:00.307Z,25.90
2022-08-03T00:59:27.474Z,26.00
2022-08-03T01:01:54.376Z,26.10
2022-08-03T01:04:21.408Z,26.00
2022-08-03T01:06:48.275Z,26.40
2022-08-03T01:09:15.223Z,26.20
2022-08-03T01:12:00.310Z,26.10
2022-08-03T01:14:28.517Z,26.30
2022-08-03T01:16:55.405Z,26.10
2022-08-03T01:19:22.340Z,26.00
2022-08-03T01:21:49.307Z,26.10
2022-08-03T01:24:17.286Z,25.90
2022-08-03T01:26:44.274Z,26.20
2022-08-03T01:29:11.168Z,26.20
2022-08-03T01:32:53.659Z,26.00
2022-08-03T01:34:25.000Z,26.20
2022-08-03T01:36:51.928Z,26.10
2022-08-03T01:39:18.841Z,25.70
2022-08-03T01:41:45.772Z,25.90
2022-08-03T01:44:29.379Z,25.80
2022-08-03T01:46:57.738Z,26.00
2022-08-03T01:49:24.653Z,26.30
2022-08-03T01:52:02.777Z,25.90
2022-08-03T01:54:32.046Z,26.00
2022-08-03T01:56:58.988Z,26.40
2022-08-03T01:59:25.947Z,26.20
2022-08-03T02:02:19.547Z,25.90
2022-08-03T02:04:39.718Z,26.00
2022-08-03T02:07:06.668Z,25.90
2022-08-03T02:09:33.572Z,25.70
2022-08-03T02:12:00.517Z,25.90
2022-08-03T02:14:28.442Z,25.70
2022-08-03T02:16:55.336Z,26.00
2022-08-03T02:19:22.376Z,26.20
2022-08-03T02:21:57.043Z,25.90
2022-08-03T02:24:27.886Z,25.90
2022-08-03T02:26:55.023Z,26.10
2022-08-03T02:29:21.973Z,25.70
2022-08-03T02:32:07.457Z,25.70
2022-08-03T02:34:35.223Z,26.10
2022-08-03T02:37:02.120Z,25.90
2022-08-03T02:39:29.056Z,26.20
2022-08-03T02:41:55.969Z,26.30
2022-08-03T02:44:22.878Z,26.10
2022-08-03T02:46:49.857Z,26.30
2022-08-03T02:49:35.361Z,26.40
2022-08-03T02:52:03.708Z,26.20
2022-08-03T02:54:30.668Z,26.30
2022-08-03T02:56:57.660Z,26.40
2022-08-03T02:59:24.688Z,26.10
2022-08-03T03:01:51.552Z,26.10
2022-08-03T03:04:18.487Z,26.40
2022-08-03T03:06:47.940Z,26.40
2022-08-03T03:09:15.197Z,26.00
2022-08-03T03:11:42.089Z,26.10
2022-08-03T03:14:09.097Z,26.30
2022-08-03T03:16:36.059Z,26.00
2022-08-03T03:19:05.044Z,26.30
2022-08-03T03:21:31.997Z,26.30
2022-08-03T03:23:59.282Z,26.00
2022-08-03T03:26:26.217Z,26.10
2022-08-03T03:28:53.119Z,26.40
2022-08-03T03:31:20.139Z,26.10
2022-08-03T03:33:46.975Z,25.80
2022-08-03T03:36:13.920Z,26.20
2022-08-03T03:38:40.775Z,26.40
2022-08-03T03:41:07.711Z,26.40
2022-08-03T03:43:34.594Z,26.20
2022-08-03T03:46:01.644Z,26.10
2022-08-03T03:48:28.501Z,26.10
2022-08-03T03:50:57.757Z,26.10
2022-08-03T03:53:24.652Z,26.30
2022-08-03T03:55:59.238Z,26.50
2022-08-03T03:58:29.873Z,26.60
2022-08-03T04:00:56.855Z,26.30
2022-08-03T04:03:23.835Z,26.00
2022-08-03T04:05:50.839Z,26.20
2022-08-03T04:08:17.731Z,26.50
2022-08-03T04:10:44.643Z,26.60
2022-08-03T04:13:11.689Z,26.10
2022-08-03T04:15:38.651Z,25.70
2022-08-03T04:18:05.668Z,25.90
2022-08-03T04:20:32.578Z,26.10
2022-08-03T04:22:59.561Z,25.90
2022-08-03T04:25:26.474Z,26.30
2022-08-03T04:28:07.697Z,26.20
2022-08-03T04:30:40.320Z,25.80
2022-08-03T04:33:07.263Z,25.70
2022-08-03T04:36:02.046Z,26.10
2022-08-03T04:38:21.908Z,26.20
2022-08-03T04:40:48.919Z,26.10
2022-08-03T04:43:15.861Z,26.00
2022-08-03T04:45:42.857Z,25.80
2022-08-03T04:48:09.897Z,26.00
2022-08-03T04:50:36.860Z,26.10
2022-08-03T04:53:03.783Z,26.20
2022-08-03T04:55:30.756Z,25.90
2022-08-03T04:57:57.834Z,26.00
2022-08-03T05:00:24.736Z,26.20
2022-08-03T05:02:51.696Z,26.40
2022-08-03T05:05:18.598Z,26.10
2022-08-03T05:07:46.131Z,25.70
2022-08-03T05:10:16.410Z,25.60
2022-08-03T05:12:43.689Z,25.90
2022-08-03T05:15:11.617Z,26.30
2022-08-03T05:17:38.841Z,26.00
2022-08-03T05:20:05.973Z,25.90
2022-08-03T05:22:33.024Z,26.10
2022-08-03T05:25:03.118Z,26.10
2022-08-03T05:27:30.186Z,25.70
2022-08-03T05:29:57.087Z,25.70
2022-08-03T05:32:43.968Z,26.20
2022-08-03T05:36:02.813Z,26.20
2022-08-03T05:37:58.019Z,25.90
2022-08-03T05:40:24.905Z,25.60
2022-08-03T05:42:55.466Z,26.00
2022-08-03T05:45:27.919Z,26.40
2022-08-03T05:47:55.461Z,26.60
2022-08-03T05:50:22.552Z,26.30
2022-08-03T05:52:49.476Z,25.90
2022-08-03T05:55:16.831Z,25.60
2022-08-03T05:57:43.740Z,26.10
2022-08-03T06:00:11.971Z,26.30
2022-08-03T06:02:39.635Z,26.00
2022-08-03T06:05:06.694Z,25.90
2022-08-03T06:07:33.856Z,25.80
2022-08-03T06:10:37.409Z,25.60
2022-08-03T06:12:47.856Z,26.00
2022-08-03T06:15:14.861Z,26.40
2022-08-03T06:17:41.920Z,26.30
2022-08-03T06:20:08.772Z,26.20
2022-08-03T06:22:35.807Z,26.10
2022-08-03T06:25:14.601Z,25.90
2022-08-03T06:27:41.712Z,25.90
2022-08-03T06:30:09.069Z,26.10
2022-08-03T06:32:37.497Z,26.30
2022-08-03T06:35:04.402Z,26.10
2022-08-03T06:37:31.357Z,25.90
2022-08-03T06:39:58.286Z,26.20
2022-08-03T06:42:25.200Z,26.40
2022-08-03T06:44:52.223Z,26.10
2022-08-03T06:47:19.399Z,26.20
2022-08-03T06:50:12.394Z,26.50
2022-08-03T06:52:37.915Z,26.30
2022-08-03T06:55:05.463Z,26.00
2022-08-03T06:57:32.709Z,25.80
2022-08-03T07:00:08.075Z,25.50
2022-08-03T07:02:38.219Z,25.60
2022-08-03T07:05:06.134Z,26.10
2022-08-03T07:07:33.180Z,26.20
2022-08-03T07:10:00.048Z,26.20
2022-08-03T07:12:29.382Z,26.10
2022-08-03T07:15:00.387Z,26.10
2022-08-03T07:17:28.522Z,26.00
2022-08-03T07:19:55.543Z,25.90
2022-08-03T07:22:22.987Z,25.60
2022-08-03T07:24:49.982Z,25.50
2022-08-03T07:27:16.914Z,25.90
2022-08-03T07:29:43.822Z,26.20
2022-08-03T07:32:10.854Z,26.10
2022-08-03T07:34:37.976Z,26.10
2022-08-03T07:37:04.833Z,26.30
2022-08-03T07:39:31.881Z,26.20
2022-08-03T07:41:58.741Z,26.00
2022-08-03T07:44:25.677Z,26.20
2022-08-03T07:46:52.589Z,26.10
2022-08-03T07:49:19.831Z,25.80
2022-08-03T07:51:50.988Z,26.10
2022-08-03T07:54:18.062Z,26.30
2022-08-03T07:56:45.150Z,26.20
2022-08-03T07:59:12.265Z,26.10
2022-08-03T08:01:39.200Z,26.00
2022-08-03T08:04:06.237Z,25.90
2022-08-03T08:06:33.359Z,25.90
2022-08-03T08:09:00.720Z,25.80
2022-08-03T08:11:27.873Z,25.60
2022-08-03T08:13:54.858Z,25.50
2022-08-03T08:16:21.944Z,25.60
2022-08-03T08:18:48.844Z,25.90
2022-08-03T08:21:15.791Z,26.30
2022-08-03T08:23:48.058Z,26.30
2022-08-03T08:26:24.210Z,26.00
2022-08-03T08:28:51.156Z,25.70
2022-08-03T08:31:18.060Z,26.10
2022-08-03T08:36:34.400Z,26.50
2022-08-03T08:39:01.256Z,26.20
2022-08-03T08:41:32.365Z,25.80
2022-08-03T08:44:00.177Z,25.50
2022-08-03T08:46:27.398Z,25.20
2022-08-03T08:48:54.432Z,25.10
2022-08-03T08:51:21.606Z,25.10
2022-08-03T08:53:48.572Z,25.70
2022-08-03T08:56:15.801Z,26.20
2022-08-03T08:58:42.756Z,26.10
2022-08-03T09:01:09.805Z,26.10
2022-08-03T09:03:36.760Z,26.00
2022-08-03T09:06:03.789Z,25.90
2022-08-03T09:08:30.767Z,25.90
2022-08-03T09:10:57.632Z,25.90
2022-08-03T09:13:24.659Z,25.90
2022-08-03T09:16:00.998Z,25.80
2022-08-03T09:18:32.172Z,25.80
2022-08-03T09:21:14.748Z,25.90
2022-08-03T09:24:01.420Z,25.90
2022-08-03T09:26:29.617Z,25.90
2022-08-03T09:29:04.084Z,25.90
2022-08-03T09:31:33.963Z,25.80
2022-08-03T09:34:00.966Z,25.80
2022-08-03T09:36:27.881Z,25.80
2022-08-03T09:38:55.339Z,25.80
2022-08-03T09:41:22.189Z,25.80
2022-08-03T09:43:49.233Z,25.90
2022-08-03T09:46:16.142Z,25.80
2022-08-03T09:48:43.104Z,25.80
2022-08-03T09:51:14.474Z,25.80
2022-08-03T09:53:59.121Z,25.90
2022-08-03T09:56:35.937Z,25.90
2022-08-03T09:59:03.844Z,25.90
2022-08-03T10:01:30.871Z,25.90
2022-08-03T10:04:03.867Z,25.90
2022-08-03T10:06:32.066Z,26.00
2022-08-03T10:08:59.225Z,26.00
2022-08-03T10:11:26.281Z,26.00
2022-08-03T10:14:01.307Z,26.00
2022-08-03T10:16:28.631Z,26.10
2022-08-03T10:18:55.538Z,26.10
2022-08-03T10:21:22.574Z,26.10
2022-08-03T10:23:49.439Z,26.10
2022-08-03T10:26:16.409Z,26.10
2022-08-03T10:28:45.549Z,26.10
2022-08-03T10:31:12.735Z,26.10
2022-08-03T10:33:50.630Z,26.10
2022-08-03T10:36:19.166Z,26.10
2022-08-03T10:38:46.168Z,26.10
2022-08-03T10:41:13.123Z,26.20
2022-08-03T10:43:40.100Z,26.20
2022-08-03T10:46:07.140Z,26.30
2022-08-03T10:48:34.152Z,26.30
2022-08-03T10:51:01.079Z,26.30
2022-08-03T10:53:28.062Z,26.30
2022-08-03T10:55:56.519Z,26.40
2022-08-03T10:58:30.444Z,26.40
2022-08-03T11:00:58.104Z,26.40
2022-08-03T11:03:25.158Z,26.50
2022-08-03T11:05:52.101Z,26.50
2022-08-03T11:08:19.145Z,26.60
2022-08-03T11:10:46.095Z,26.50
2022-08-03T11:13:13.153Z,26.60
2022-08-03T11:15:43.957Z,26.60
2022-08-03T11:18:10.973Z,26.70
2022-08-03T11:20:38.543Z,26.70
2022-08-03T11:23:05.607Z,26.70
2022-08-03T11:25:53.842Z,26.70
2022-08-03T11:28:19.797Z,26.80
2022-08-03T11:30:47.231Z,26.80
2022-08-03T11:33:14.319Z,26.80
2022-08-03T11:35:41.209Z,26.90
2022-08-03T11:38:08.160Z,26.80
2022-08-03T11:40:35.181Z,26.80
2022-08-03T11:43:02.076Z,26.80
2022-08-03T11:45:28.989Z,26.80
2022-08-03T11:47:55.926Z,26.80
2022-08-03T11:50:24.080Z,26.80
2022-08-03T11:52:51.289Z,26.80
2022-08-03T11:55:18.164Z,26.80
2022-08-03T11:59:19.156Z,26.90
2022-08-03T12:00:31.993Z,27.00
2022-08-03T12:02:59.059Z,27.00
2022-08-03T12:05:26.188Z,27.00
2022-08-03T12:08:03.255Z,26.90
2022-08-03T12:10:32.045Z,26.60
2022-08-03T12:12:58.983Z,26.40
2022-08-03T12:15:26.032Z,26.40
2022-08-03T12:17:57.584Z,26.80
2022-08-03T12:20:34.823Z,26.80
2022-08-03T12:23:02.124Z,26.50
2022-08-03T12:25:39.223Z,26.30
2022-08-03T12:28:07.000Z,26.50
2022-08-03T12:30:54.935Z,26.90
2022-08-03T12:33:22.126Z,26.70
2022-08-03T12:35:52.117Z,26.40
2022-08-03T12:38:19.644Z,26.10
2022-08-03T12:40:46.621Z,26.00
2022-08-03T12:43:13.572Z,26.00
2022-08-03T12:45:40.515Z,26.10
2022-08-03T12:48:07.427Z,26.20
2022-08-03T12:50:34.529Z,26.10
2022-08-03T12:53:01.821Z,25.80
2022-08-03T12:55:28.780Z,25.60
2022-08-03T12:57:55.796Z,25.50
2022-08-03T13:00:29.392Z,25.50
2022-08-03T13:03:26.671Z,25.40
2022-08-03T13:05:43.860Z,25.20
2022-08-03T13:08:10.748Z,25.50
2022-08-03T13:10:38.494Z,26.10
2022-08-03T13:13:05.948Z,26.20
2022-08-03T13:15:38.520Z,26.00
2022-08-03T13:18:14.529Z,25.80
2022-08-03T13:20:44.657Z,25.70
2022-08-03T13:23:12.968Z,25.70
2022-08-03T13:25:55.903Z,25.90
2022-08-03T13:28:23.168Z,26.40
2022-08-03T13:30:50.083Z,26.50
2022-08-03T13:33:17.055Z,26.20
2022-08-03T13:35:44.009Z,26.10
2022-08-03T13:38:10.982Z,25.90
2022-08-03T13:40:41.389Z,25.80
2022-08-03T13:43:08.870Z,25.70
2022-08-03T13:45:35.707Z,25.80
2022-08-03T13:48:02.682Z,26.20
2022-08-03T13:50:29.656Z,26.10
2022-08-03T13:52:56.728Z,25.90
2022-08-03T13:55:23.728Z,25.60
2022-08-03T13:58:03.130Z,25.50
2022-08-03T14:00:33.965Z,25.50
2022-08-03T14:03:16.072Z,26.10
2022-08-03T14:05:43.232Z,26.30
2022-08-03T14:08:10.128Z,26.10
2022-08-03T14:10:37.111Z,25.90
2022-08-03T14:13:04.145Z,25.80
2022-08-03T14:15:31.243Z,25.60
2022-08-03T14:17:58.625Z,25.70
2022-08-03T14:20:48.649Z,26.10
2022-08-03T14:23:12.982Z,25.90
2022-08-03T14:25:43.482Z,25.60
2022-08-03T14:28:17.633Z,25.70
2022-08-03T14:30:44.561Z,25.50
2022-08-03T14:33:11.569Z,25.30
2022-08-03T14:35:38.587Z,25.20
2022-08-03T14:38:05.563Z,25.60
2022-08-03T14:40:32.416Z,26.10
2022-08-03T14:42:59.447Z,26.30
2022-08-03T14:45:26.303Z,26.10
2022-08-03T14:50:30.827Z,25.80
2022-08-03T14:50:44.361Z,25.50
2022-08-03T14:53:14.071Z,25.20
2022-08-03T14:55:50.660Z,25.10
2022-08-03T14:58:19.742Z,25.60
2022-08-03T15:00:48.561Z,25.90
2022-08-03T15:03:16.730Z,25.90
2022-08-03T15:05:44.066Z,25.90
2022-08-03T15:08:11.136Z,26.00
2022-08-03T15:10:44.016Z,25.90
2022-08-03T15:13:12.048Z,25.80
2022-08-03T15:15:38.939Z,26.10
2022-08-03T15:18:05.997Z,26.20
2022-08-03T15:20:43.969Z,25.90
2022-08-03T15:23:11.863Z,25.60
2022-08-03T15:26:28.605Z,25.30
2022-08-03T15:28:25.743Z,25.30
2022-08-03T15:30:52.646Z,26.00
2022-08-03T15:33:19.616Z,26.30
2022-08-03T15:35:46.604Z,26.30
2022-08-03T15:38:13.455Z,26.10
2022-08-03T15:40:40.409Z,26.10
2022-08-03T15:43:07.321Z,26.10
2022-08-03T15:45:36.343Z,25.80
2022-08-03T15:48:03.776Z,25.60
2022-08-03T15:50:30.681Z,25.70
2022-08-03T15:52:57.583Z,26.00
2022-08-03T15:55:24.552Z,26.20
2022-08-03T15:59:09.397Z,25.80
2022-08-03T16:00:39.337Z,25.60
2022-08-03T16:03:06.246Z,25.90
2022-08-03T16:05:33.301Z,25.70
2022-08-03T16:08:03.830Z,25.40
2022-08-03T16:10:33.914Z,25.20
2022-08-03T16:13:00.814Z,25.00
2022-08-03T16:15:27.786Z,25.50
2022-08-03T16:17:58.953Z,25.90
2022-08-03T16:20:33.972Z,26.10
2022-08-03T16:23:10.541Z,25.70
2022-08-03T16:25:38.122Z,25.30
2022-08-03T16:28:08.060Z,25.50
2022-08-03T16:30:40.046Z,26.00
2022-08-03T16:33:07.148Z,26.10
2022-08-03T16:35:34.196Z,26.00
2022-08-03T16:38:01.230Z,25.80
2022-08-03T16:40:28.212Z,25.70
2022-08-03T16:42:55.112Z,25.50
2022-08-03T16:45:22.232Z,25.80
2022-08-03T16:48:01.738Z,26.30
2022-08-03T16:50:32.762Z,26.30
2022-08-03T16:52:59.648Z,26.30
2022-08-03T16:55:48.570Z,26.20
2022-08-03T16:58:13.787Z,26.00
2022-08-03T17:00:41.462Z,25.90
2022-08-03T17:03:18.833Z,25.90
2022-08-03T17:05:48.236Z,25.70
2022-08-03T17:08:26.153Z,25.90
2022-08-03T17:10:54.113Z,26.10
2022-08-03T17:13:22.511Z,26.30
2022-08-03T17:15:57.987Z,26.10
2022-08-03T17:18:28.123Z,25.70
2022-08-03T17:20:55.009Z,25.70
2022-08-03T17:23:24.263Z,26.00
2022-08-03T17:26:04.833Z,26.20
2022-08-03T17:28:48.571Z,25.90
2022-08-03T17:31:23.316Z,26.10
2022-08-03T17:33:58.063Z,26.30
2022-08-03T17:36:41.757Z,25.90
2022-08-03T17:39:14.397Z,25.80
2022-08-03T17:41:49.172Z,26.30
2022-08-03T17:44:31.049Z,26.30
2022-08-03T17:47:00.743Z,26.10
2022-08-03T17:49:28.240Z,26.10
2022-08-03T17:51:58.056Z,26.00
2022-08-03T17:54:27.135Z,25.60
2022-08-03T17:56:55.777Z,25.80
2022-08-03T17:59:50.779Z,26.20
2022-08-03T18:02:22.371Z,26.30
2022-08-03T18:04:57.234Z,25.90
2022-08-03T18:07:41.080Z,26.00
2022-08-03T18:10:11.470Z,26.20
2022-08-03T18:12:38.731Z,25.80
2022-08-03T18:15:08.589Z,25.90
2022-08-03T18:17:55.766Z,26.10
2022-08-03T18:20:34.483Z,25.80
2022-08-03T18:23:05.840Z,25.90
2022-08-03T18:25:49.082Z,26.30
2022-08-03T18:28:18.896Z,26.10
2022-08-03T18:30:53.965Z,25.80
2022-08-03T18:34:16.386Z,25.70
2022-08-03T18:36:08.940Z,25.50
2022-08-03T18:38:36.099Z,25.80
2022-08-03T18:41:13.174Z,26.10
2022-08-03T18:43:46.558Z,26.20
2022-08-03T18:46:14.710Z,25.80
2022-08-03T18:48:46.055Z,25.90
2022-08-03T18:51:28.622Z,26.20
2022-08-03T18:54:06.358Z,26.20
2022-08-03T18:56:35.611Z,25.70
2022-08-03T18:59:08.856Z,25.80
2022-08-03T19:02:00.519Z,26.30
2022-08-03T19:04:24.278Z,26.20
2022-08-03T19:06:51.344Z,26.10
2022-08-03T19:09:20.936Z,26.00
2022-08-03T19:12:12.692Z,25.70
2022-08-03T19:14:35.015Z,25.60
2022-08-03T19:17:01.951Z,25.90
2022-08-03T19:19:44.035Z,26.20
2022-08-03T19:22:11.880Z,26.30
2022-08-03T19:24:42.789Z,25.90
2022-08-03T19:27:10.756Z,25.90
2022-08-03T19:29:59.892Z,26.30
2022-08-03T19:32:24.681Z,26.20
2022-08-03T19:34:51.605Z,25.90
2022-08-03T19:37:19.093Z,26.10
2022-08-03T19:39:56.777Z,26.10
2022-08-03T19:42:24.102Z,25.80
2022-08-03T19:44:55.971Z,26.10
2022-08-03T19:47:22.975Z,26.40
2022-08-03T19:50:06.024Z,26.30
2022-08-03T19:52:37.204Z,26.10
2022-08-03T19:55:04.233Z,26.10
2022-08-03T19:57:31.261Z,25.80
2022-08-03T19:59:58.629Z,26.10
2022-08-03T20:02:31.024Z,26.20
2022-08-03T20:05:00.008Z,26.40
2022-08-03T20:07:27.383Z,25.90
2022-08-03T20:09:56.758Z,25.90
2022-08-03T20:12:27.349Z,26.20
2022-08-03T20:14:55.606Z,26.00
2022-08-03T20:17:23.369Z,25.60
2022-08-03T20:20:10.297Z,25.90
2022-08-03T20:22:37.201Z,26.20
2022-08-03T20:25:06.112Z,26.40
2022-08-03T20:27:33.076Z,26.00
2022-08-03T20:30:19.948Z,26.00
2022-08-03T20:32:54.343Z,26.30
2022-08-03T20:35:21.268Z,26.40
2022-08-03T20:37:48.160Z,26.00
2022-08-03T20:40:15.184Z,25.80
2022-08-03T20:42:48.082Z,26.10
2022-08-03T20:46:01.137Z,25.80
2022-08-03T20:48:02.004Z,26.20
2022-08-03T20:50:28.934Z,26.40
2022-08-03T20:52:56.770Z,26.20
2022-08-03T20:55:47.454Z,26.00
2022-08-03T20:58:10.652Z,25.90
2022-08-03T21:00:37.585Z,25.50
2022-08-03T21:03:04.500Z,25.70
2022-08-03T21:08:18.313Z,26.20
2022-08-03T21:10:45.255Z,26.10
2022-08-03T21:13:08.028Z,26.10
2022-08-03T21:13:17.579Z,26.20
2022-08-03T21:16:12.810Z,26.20
2022-08-03T21:18:32.603Z,25.80
2022-08-03T21:20:59.536Z,25.90
2022-08-03T21:23:40.465Z,26.30
2022-08-03T21:26:13.600Z,26.10
2022-08-03T21:28:40.453Z,25.60
2022-08-03T21:31:07.384Z,26.00
2022-08-03T21:33:34.286Z,26.20
2022-08-03T21:36:01.184Z,26.20
2022-08-03T21:38:30.364Z,26.00
2022-08-03T21:40:57.369Z,26.10
2022-08-03T21:43:24.339Z,25.80
2022-08-03T21:45:51.338Z,25.90
2022-08-03T21:48:18.226Z,26.10
2022-08-03T21:50:45.118Z,26.30
2022-08-03T21:53:12.109Z,26.00
2022-08-03T21:55:39.026Z,25.90
2022-08-03T21:58:07.763Z,26.10
2022-08-03T22:00:34.866Z,26.30
2022-08-03T22:03:15.202Z,25.90
2022-08-03T22:05:44.273Z,26.00
2022-08-03T22:08:11.285Z,26.30
2022-08-03T22:10:38.276Z,26.10
2022-08-03T22:13:05.188Z,25.70
2022-08-03T22:15:34.410Z,25.90
2022-08-03T22:18:01.348Z,26.30
2022-08-03T22:20:28.428Z,26.30
2022-08-03T22:22:56.554Z,25.80
2022-08-03T22:25:23.709Z,25.80
2022-08-03T22:27:50.632Z,26.10
2022-08-03T22:30:17.526Z,26.50
2022-08-03T22:32:44.435Z,26.20
2022-08-03T22:35:11.435Z,25.80
2022-08-03T22:37:38.289Z,25.90
2022-08-03T22:40:05.228Z,26.00
2022-08-03T22:42:32.204Z,25.90
2022-08-03T22:44:59.162Z,26.30
2022-08-03T22:47:26.109Z,26.20
2022-08-03T22:50:32.045Z,26.00
2022-08-03T22:52:39.894Z,26.20
2022-08-03T22:55:06.792Z,26.40
2022-08-03T22:57:33.731Z,26.20
2022-08-03T23:00:00.712Z,26.00
2022-08-03T23:02:27.609Z,25.90
2022-08-03T23:04:54.502Z,25.80
2022-08-03T23:07:25.630Z,25.90
2022-08-03T23:09:52.631Z,26.30
2022-08-03T23:12:19.560Z,26.30
2022-08-03T23:14:46.446Z,26.10
2022-08-03T23:17:13.450Z,26.30
2022-08-03T23:19:44.673Z,26.50
2022-08-03T23:22:29.529Z,26.20
2022-08-03T23:24:57.403Z,26.40
2022-08-03T23:27:24.363Z,26.60
2022-08-03T23:29:51.217Z,26.20
2022-08-03T23:32:18.219Z,26.30
2022-08-03T23:34:45.202Z,26.50
2022-08-03T23:37:12.295Z,26.10
2022-08-03T23:39:39.175Z,26.00
2022-08-03T23:42:06.164Z,26.40
2022-08-03T23:44:33.066Z,26.30
2022-08-03T23:46:59.956Z,26.20
2022-08-03T23:49:26.896Z,26.20
2022-08-03T23:51:53.821Z,26.00
2022-08-03T23:54:20.868Z,25.60
2022-08-03T23:56:47.715Z,25.70
2022-08-03T23:59:14.650Z,26.00
